Time;durP1;ratioP1;P1;durP2;ratioP2;P2;SDS_P1;SDS_P2;PMS_P1;PMS_P2;Temp;Humidity;BMP_temperature;BMP_pressure;BME280_temperature;BME280_humidity;BME280_pressure;Samples;Min_cycle;Max_cycle;Signal;HPM_P1;HPM_P2
2021/09/27 00:02:19;;;;;;;15.43;13.98;;;15.90;1.00;;;;;;5054220;28;20029;-73
2021/09/27 00:04:44;;;;;;;16.05;14.23;;;15.90;1.00;;;;;;5054231;28;20055;-74
2021/09/27 00:07:10;;;;;;;16.08;13.90;;;15.90;1.00;;;;;;5053886;28;20048;-74
2021/09/27 00:09:36;;;;;;;15.75;14.25;;;15.80;1.00;;;;;;5054466;28;20030;-74
2021/09/27 00:12:10;;;;;;;16.30;14.10;;;15.90;1.00;;;;;;5054368;28;20814;-74
2021/09/27 00:14:36;;;;;;;15.20;13.70;;;15.90;1.00;;;;;;5054617;28;20100;-74
2021/09/27 00:17:03;;;;;;;15.48;14.02;;;15.90;17.70;;;;;;5065455;28;20025;-74
2021/09/27 00:19:29;;;;;;;15.48;13.85;;;15.90;99.90;;;;;;5068192;28;20120;-74
2021/09/27 00:21:55;;;;;;;15.93;14.38;;;15.90;99.90;;;;;;5064043;28;20032;-73
2021/09/27 00:24:21;;;;;;;16.27;14.02;;;15.80;99.90;;;;;;5060479;28;20029;-74
2021/09/27 00:26:47;;;;;;;15.18;13.73;;;15.80;99.90;;;;;;5054312;28;20023;-73
2021/09/27 00:29:14;;;;;;;15.00;13.52;;;15.90;99.90;;;;;;5053911;28;20029;-74
2021/09/27 00:31:40;;;;;;;15.23;13.80;;;15.90;99.90;;;;;;5053455;28;20487;-75
2021/09/27 00:34:06;;;;;;;15.82;14.30;;;15.90;99.90;;;;;;5053446;28;20025;-73
2021/09/27 00:36:32;;;;;;;18.02;13.90;;;15.80;99.90;;;;;;5054201;28;20017;-74
2021/09/27 00:38:58;;;;;;;15.35;13.85;;;15.80;99.90;;;;;;5053443;28;20017;-73
2021/09/27 00:41:24;;;;;;;14.40;13.05;;;15.80;99.90;;;;;;5053815;28;20027;-73
2021/09/27 00:43:51;;;;;;;16.08;14.48;;;15.80;99.90;;;;;;5052177;28;20402;-74
2021/09/27 00:46:21;;;;;;;15.43;13.98;;;15.80;99.90;;;;;;5053538;28;20052;-75
2021/09/27 00:48:47;;;;;;;15.63;14.00;;;15.70;99.90;;;;;;5054804;28;20025;-74
2021/09/27 00:51:16;;;;;;;15.40;13.90;;;15.60;99.90;;;;;;5054212;28;20028;-74
2021/09/27 00:53:56;;;;;;;15.57;13.98;;;15.60;99.90;;;;;;5054390;28;20167;-75
2021/09/27 00:56:25;;;;;;;14.82;13.38;;;15.60;99.90;;;;;;5053915;28;20508;-74
2021/09/27 00:58:52;;;;;;;14.73;13.43;;;15.60;99.90;;;;;;5052697;28;20090;-73
2021/09/27 01:01:18;;;;;;;17.85;14.63;;;15.50;99.90;;;;;;5053210;28;20032;-73
2021/09/27 01:03:44;;;;;;;16.67;14.95;;;15.60;99.90;;;;;;5052810;28;20524;-74
2021/09/27 01:06:21;;;;;;;17.58;15.88;;;15.50;99.90;;;;;;5053736;28;20033;-74
2021/09/27 01:09:11;;;;;;;16.38;14.77;;;15.50;99.90;;;;;;5053793;28;20033;-74
2021/09/27 01:12:04;;;;;;;18.67;16.70;;;15.40;99.90;;;;;;5054346;28;20057;-74
2021/09/27 01:15:17;;;;;;;18.67;16.48;;;15.40;99.90;;;;;;5054583;28;20059;-75
2021/09/27 01:18:21;;;;;;;18.80;16.90;;;15.30;99.90;;;;;;5015818;28;20026;-73
2021/09/27 01:20:58;;;;;;;16.77;14.82;;;15.30;99.90;;;;;;5062856;28;20029;-75
2021/09/27 01:23:58;;;;;;;20.52;16.77;;;15.30;99.90;;;;;;5073147;28;20036;-75
2021/09/27 01:26:41;;;;;;;18.00;15.95;;;15.30;99.90;;;;;;5066095;28;20104;-77
2021/09/27 01:29:10;;;;;;;17.63;15.43;;;15.30;99.90;;;;;;5059159;28;20032;-75
2021/09/27 01:32:00;;;;;;;18.67;16.67;;;15.30;99.90;;;;;;5056038;28;20116;-73
2021/09/27 01:34:37;;;;;;;18.90;16.83;;;15.30;99.90;;;;;;5053632;28;20025;-74
2021/09/27 01:37:24;;;;;;;17.90;16.10;;;15.40;99.90;;;;;;5053620;28;20260;-73
2021/09/27 01:40:14;;;;;;;17.90;16.10;;;15.40;99.90;;;;;;5053287;28;20029;-73
2021/09/27 01:42:50;;;;;;;18.98;16.88;;;15.50;99.90;;;;;;5053423;28;20021;-73
2021/09/27 01:45:42;;;;;;;18.35;16.30;;;15.50;99.90;;;;;;5053285;28;20067;-73
2021/09/27 01:48:12;;;;;;;18.20;16.40;;;15.50;99.90;;;;;;5053073;28;20021;-74
2021/09/27 01:50:49;;;;;;;18.38;15.95;;;15.50;99.90;;;;;;5053053;28;20034;-74
2021/09/27 01:53:46;;;;;;;18.45;16.52;;;15.60;99.90;;;;;;5053455;28;20019;-73
2021/09/27 01:56:20;;;;;;;18.85;16.95;;;15.60;99.90;;;;;;5050218;28;20400;-73
2021/09/27 01:59:13;;;;;;;18.85;15.55;;;15.60;99.90;;;;;;5052741;28;20017;-73
2021/09/27 02:01:51;;;;;;;18.75;16.75;;;15.60;99.90;;;;;;5053285;28;20021;-74
2021/09/27 02:04:41;;;;;;;17.73;15.95;;;15.60;99.90;;;;;;5051715;28;20029;-73
2021/09/27 02:07:07;;;;;;;20.10;17.00;;;15.60;99.90;;;;;;5052526;28;20037;-74
2021/09/27 02:09:57;;;;;;;18.10;15.85;;;15.60;99.90;;;;;;5053089;28;20480;-74
2021/09/27 02:12:31;;;;;;;17.02;15.32;;;15.60;99.90;;;;;;5051787;28;20511;-74
2021/09/27 02:15:22;;;;;;;19.25;14.75;;;15.60;99.90;;;;;;5056986;28;20032;-74
2021/09/27 02:18:03;;;;;;;18.70;16.73;;;15.60;99.90;;;;;;5057388;28;20036;-74
2021/09/27 02:20:35;;;;;;;16.65;14.95;;;15.60;99.90;;;;;;5057074;28;20040;-74
2021/09/27 02:23:00;;;;;;;17.90;16.00;;;15.60;99.90;;;;;;5057006;28;20036;-73
2021/09/27 02:25:33;;;;;;;18.05;16.27;;;15.60;99.90;;;;;;5055810;28;20210;-73
2021/09/27 02:28:01;;;;;;;17.95;16.08;;;15.50;99.90;;;;;;5057516;28;20102;-73
2021/09/27 02:30:40;;;;;;;19.75;17.65;;;15.50;99.90;;;;;;5055581;28;20031;-74
2021/09/27 02:33:24;;;;;;;16.73;14.38;;;15.50;99.90;;;;;;5057583;28;20043;-74
2021/09/27 02:35:56;;;;;;;20.02;14.88;;;15.50;99.90;;;;;;5056478;28;20025;-74
2021/09/27 02:38:53;;;;;;;19.70;16.15;;;15.50;99.90;;;;;;5057135;28;20074;-75
2021/09/27 02:41:54;;;;;;;17.27;15.48;;;15.50;99.90;;;;;;5057153;28;20017;-73
2021/09/27 02:44:20;;;;;;;16.73;15.00;;;15.50;99.90;;;;;;5057712;28;20104;-74
2021/09/27 02:46:54;;;;;;;20.35;15.65;;;15.50;99.90;;;;;;5056914;28;20056;-73
2021/09/27 02:49:26;;;;;;;17.95;15.95;;;15.60;99.90;;;;;;5057811;28;20044;-73
2021/09/27 02:51:55;;;;;;;16.98;15.23;;;15.50;99.90;;;;;;5055752;28;20029;-75
2021/09/27 02:54:39;;;;;;;17.10;14.98;;;15.50;99.90;;;;;;5057257;28;20060;-72
2021/09/27 02:57:29;;;;;;;16.27;14.57;;;15.50;99.90;;;;;;5056899;28;20025;-72
2021/09/27 03:00:16;;;;;;;18.27;14.90;;;15.60;99.90;;;;;;5057108;28;20025;-73
2021/09/27 03:03:06;;;;;;;19.30;16.00;;;15.60;99.90;;;;;;5057372;28;20025;-73
2021/09/27 03:05:50;;;;;;;17.65;15.75;;;15.60;99.90;;;;;;5057079;28;20028;-73
2021/09/27 03:08:32;;;;;;;17.20;15.38;;;15.60;99.90;;;;;;5079719;22;20041;-73
2021/09/27 03:11:35;;;;;;;17.90;15.43;;;15.60;99.90;;;;;;5058585;28;20033;-73
2021/09/27 03:14:12;;;;;;;19.55;15.65;;;15.60;99.90;;;;;;5056123;28;20045;-73
2021/09/27 03:17:01;;;;;;;16.17;14.55;;;15.60;99.90;;;;;;5060631;28;20021;-73
2021/09/27 03:19:47;;;;;;;17.67;15.75;;;15.60;99.90;;;;;;5064784;28;20426;-73
2021/09/27 03:22:25;;;;;;;18.05;14.73;;;15.70;99.90;;;;;;5058456;28;20116;-73
2021/09/27 03:25:18;;;;;;;19.05;15.05;;;15.70;99.90;;;;;;5056826;28;20033;-73
2021/09/27 03:28:14;;;;;;;15.60;14.00;;;15.70;99.90;;;;;;5056191;28;20021;-73
2021/09/27 03:30:54;;;;;;;16.80;15.10;;;15.70;99.90;;;;;;5054407;28;20093;-73
2021/09/27 03:33:42;;;;;;;16.75;15.05;;;15.70;99.90;;;;;;5055274;28;20654;-73
2021/09/27 03:36:39;;;;;;;16.42;14.70;;;15.70;99.90;;;;;;5055077;28;20039;-72
2021/09/27 03:39:41;;;;;;;18.98;16.42;;;15.70;99.90;;;;;;5055273;28;20029;-73
2021/09/27 03:42:14;;;;;;;17.33;14.07;;;15.70;99.90;;;;;;5054738;28;20043;-73
2021/09/27 03:45:02;;;;;;;16.17;14.50;;;15.70;99.90;;;;;;5054850;28;20040;-73
2021/09/27 03:47:37;;;;;;;16.55;14.90;;;15.70;99.90;;;;;;5053488;28;20028;-73
2021/09/27 03:50:13;;;;;;;17.52;14.48;;;15.80;99.90;;;;;;5054782;28;20029;-73
2021/09/27 03:52:54;;;;;;;17.20;14.27;;;15.80;99.90;;;;;;5054548;28;20499;-73
2021/09/27 03:55:25;;;;;;;18.25;16.42;;;15.80;99.90;;;;;;5054387;28;20028;-75
2021/09/27 03:58:04;;;;;;;15.30;13.77;;;15.80;99.90;;;;;;5054408;28;20032;-73
2021/09/27 04:00:33;;;;;;;15.02;13.63;;;15.80;99.90;;;;;;5054292;28;20056;-73
2021/09/27 04:03:28;;;;;;;16.95;15.25;;;15.80;99.90;;;;;;5053867;28;20029;-73
2021/09/27 04:06:15;;;;;;;16.98;14.05;;;15.90;99.90;;;;;;5054297;28;20017;-73
2021/09/27 04:08:56;;;;;;;26.92;14.65;;;15.90;99.90;;;;;;5053860;28;20437;-74
2021/09/27 04:11:24;;;;;;;;;;;15.90;99.90;;;;;;5054681;28;20377;-74
2021/09/27 04:13:54;;;;;;;16.08;13.80;;;15.90;99.90;;;;;;5054209;28;19909;-74
2021/09/27 04:16:37;;;;;;;19.20;14.37;;;15.90;99.90;;;;;;5055349;28;20056;-73
2021/09/27 04:19:25;;;;;;;16.30;14.23;;;15.80;99.90;;;;;;5072033;28;20029;-72
2021/09/27 04:21:55;;;;;;;19.52;14.57;;;15.90;99.90;;;;;;5054770;28;20063;-74
2021/09/27 04:24:34;;;;;;;15.25;12.98;;;15.90;99.90;;;;;;5056013;28;20060;-73
2021/09/27 04:27:18;;;;;;;14.63;13.23;;;15.80;99.90;;;;;;5057428;28;20025;-75
2021/09/27 04:30:20;;;;;;;14.13;12.80;;;15.80;99.90;;;;;;5057512;28;20031;-72
2021/09/27 04:33:04;;;;;;;15.23;13.70;;;15.70;99.90;;;;;;5056898;28;20357;-72
2021/09/27 04:36:04;;;;;;;14.93;13.43;;;15.60;99.90;;;;;;5056010;28;20404;-72
2021/09/27 04:38:31;;;;;;;18.02;14.20;;;15.60;99.90;;;;;;5053577;28;20481;-73
2021/09/27 04:41:25;;;;;;;16.25;14.00;;;15.50;99.90;;;;;;5053261;28;20075;-73
2021/09/27 04:44:09;;;;;;;14.55;13.05;;;15.50;99.90;;;;;;5053527;28;20029;-72
2021/09/27 04:46:54;;;;;;;15.02;13.43;;;15.50;99.90;;;;;;5053517;28;20040;-72
2021/09/27 04:49:26;;;;;;;15.77;14.10;;;15.50;99.90;;;;;;5053171;28;20083;-73
2021/09/27 04:52:05;;;;;;;15.82;14.13;;;15.40;99.90;;;;;;5060396;28;20033;-72
2021/09/27 04:54:48;;;;;;;17.08;15.38;;;15.30;99.90;;;;;;5064205;28;20481;-72
2021/09/27 04:57:26;;;;;;;24.60;14.40;;;15.20;99.90;;;;;;5059909;28;20028;-73
2021/09/27 05:00:00;;;;;;;19.17;14.90;;;15.10;99.90;;;;;;5053965;28;20021;-72
2021/09/27 05:02:52;;;;;;;17.13;15.15;;;15.10;99.90;;;;;;5064182;28;20020;-75
2021/09/27 05:05:30;;;;;;;21.83;15.60;;;15.00;99.90;;;;;;5061453;28;20054;-72
2021/09/27 05:08:11;;;;;;;16.65;14.75;;;15.00;99.90;;;;;;5069878;28;20111;-73
2021/09/27 05:10:45;;;;;;;19.45;15.55;;;14.90;99.90;;;;;;5059529;28;20107;-73
2021/09/27 05:13:14;;;;;;;21.92;15.20;;;14.90;99.90;;;;;;5054073;28;20029;-73
2021/09/27 05:15:52;;;;;;;17.52;15.25;;;14.80;99.90;;;;;;5052776;28;20029;-73
2021/09/27 05:18:35;;;;;;;20.35;15.48;;;14.80;99.90;;;;;;5053321;28;20047;-73
2021/09/27 05:21:19;;;;;;;24.17;16.23;;;14.70;99.90;;;;;;5053230;28;20021;-73
2021/09/27 05:23:55;;;;;;;21.67;17.00;;;14.70;99.90;;;;;;5052988;28;20017;-74
2021/09/27 05:26:30;;;;;;;20.40;16.38;;;14.70;99.90;;;;;;5051466;28;20028;-73
2021/09/27 05:29:15;;;;;;;17.02;15.20;;;14.70;99.90;;;;;;5051706;28;20083;-74
2021/09/27 05:32:00;;;;;;;33.38;17.38;;;14.70;99.90;;;;;;5052397;28;20025;-73
2021/09/27 05:34:52;;;;;;;23.95;16.60;;;14.70;99.90;;;;;;5052737;28;20033;-74
2021/09/27 05:37:28;;;;;;;20.35;15.85;;;14.70;99.90;;;;;;5053164;28;20023;-74
2021/09/27 05:40:28;;;;;;;26.08;15.68;;;14.80;99.90;;;;;;5052967;28;20109;-73
2021/09/27 05:43:25;;;;;;;20.92;17.25;;;14.80;99.90;;;;;;5053616;28;20456;-73
2021/09/27 05:46:29;;;;;;;20.88;15.07;;;14.80;99.90;;;;;;5052285;28;20493;-73
2021/09/27 05:49:04;;;;;;;21.23;14.52;;;14.80;99.90;;;;;;5052793;28;20091;-73
2021/09/27 05:51:34;;;;;;;23.40;15.50;;;14.90;99.90;;;;;;5052479;28;20366;-73
2021/09/27 05:54:22;;;;;;;23.27;15.70;;;14.90;99.90;;;;;;5062959;28;20093;-73
2021/09/27 05:57:14;;;;;;;20.65;16.05;;;14.90;99.90;;;;;;5071843;28;20025;-73
2021/09/27 05:59:52;;;;;;;19.38;14.95;;;15.00;99.90;;;;;;5065653;28;20021;-73
2021/09/27 06:02:32;;;;;;;21.05;15.15;;;15.00;99.90;;;;;;5053576;28;20050;-72
2021/09/27 06:05:37;;;;;;;23.10;15.90;;;15.10;99.90;;;;;;5051446;28;20033;-73
2021/09/27 06:08:24;;;;;;;16.52;14.45;;;15.10;99.90;;;;;;5052272;28;20041;-73
2021/09/27 06:11:13;;;;;;;28.35;15.27;;;15.10;99.90;;;;;;5053840;28;20025;-73
2021/09/27 06:13:47;;;;;;;25.15;15.27;;;15.20;99.90;;;;;;5042108;28;20041;-73
2021/09/27 06:16:43;;;;;;;19.08;15.40;;;15.30;99.90;;;;;;5052259;28;20552;-73
2021/09/27 06:19:18;;;;;;;20.45;14.25;;;15.40;99.90;;;;;;5051911;28;20078;-72
2021/09/27 06:21:50;;;;;;;16.45;13.18;;;15.60;99.90;;;;;;5052188;28;20025;-73
2021/09/27 06:24:50;;;;;;;18.27;13.07;;;15.90;99.90;;;;;;5051680;28;20021;-74
2021/09/27 06:27:53;;;;;;;15.32;13.13;;;16.20;99.90;;;;;;5051910;28;20063;-74
2021/09/27 06:30:35;;;;;;;15.95;13.48;;;16.40;99.90;;;;;;5052803;28;20047;-74
2021/09/27 06:33:19;;;;;;;18.83;13.57;;;16.50;99.90;;;;;;5052209;28;20028;-74
2021/09/27 06:35:48;;;;;;;14.55;12.95;;;16.50;99.90;;;;;;5052031;28;20025;-74
2021/09/27 06:38:15;;;;;;;15.98;13.70;;;16.40;99.90;;;;;;5052109;28;20429;-74
2021/09/27 06:40:46;;;;;;;14.88;13.00;;;16.50;99.90;;;;;;5050715;28;20045;-73
2021/09/27 06:43:17;;;;;;;13.98;12.55;;;16.50;99.90;;;;;;5052016;28;20100;-73
2021/09/27 06:45:43;;;;;;;15.23;12.55;;;16.60;99.90;;;;;;5051745;28;20079;-73
2021/09/27 06:48:08;;;;;;;14.30;11.75;;;16.70;99.90;;;;;;5051747;28;20480;-74
2021/09/27 06:50:34;;;;;;;14.07;11.43;;;16.90;99.90;;;;;;5051678;28;20032;-74
2021/09/27 06:53:00;;;;;;;12.48;11.18;;;16.90;99.90;;;;;;5052308;28;20324;-75
2021/09/27 06:55:26;;;;;;;12.60;11.30;;;17.10;99.90;;;;;;5051633;28;20523;-73
2021/09/27 06:57:52;;;;;;;12.40;10.52;;;17.10;99.90;;;;;;5051572;28;20048;-74
2021/09/27 07:00:18;;;;;;;11.80;10.57;;;17.10;99.90;;;;;;5055303;28;20029;-73
2021/09/27 07:02:43;;;;;;;10.63;9.43;;;17.10;99.90;;;;;;5054283;28;20032;-73
2021/09/27 07:05:10;;;;;;;13.05;10.55;;;17.30;99.90;;;;;;5056861;28;20108;-73
2021/09/27 07:07:38;;;;;;;11.70;10.60;;;17.40;99.90;;;;;;5055959;28;20111;-73
2021/09/27 07:10:08;;;;;;;12.80;9.98;;;17.40;99.90;;;;;;5055148;28;20033;-73
2021/09/27 07:12:33;;;;;;;11.73;10.45;;;17.80;99.90;;;;;;5055395;28;20396;-73
2021/09/27 07:14:59;;;;;;;12.77;10.32;;;17.80;99.90;;;;;;5056049;28;20064;-73
2021/09/27 07:17:24;;;;;;;10.95;9.95;;;17.80;99.90;;;;;;5055390;28;20025;-73
2021/09/27 07:19:50;;;;;;;14.15;10.68;;;17.90;99.90;;;;;;5055219;28;20064;-72
2021/09/27 07:22:16;;;;;;;12.68;11.38;;;17.90;99.90;;;;;;5055107;28;20032;-73
2021/09/27 07:24:42;;;;;;;14.02;11.07;;;17.80;99.90;;;;;;5053816;28;20482;-74
2021/09/27 07:27:07;;;;;;;12.23;11.02;;;17.60;99.90;;;;;;5055038;28;20028;-74
2021/09/27 07:29:33;;;;;;;11.65;10.45;;;17.80;99.90;;;;;;5055241;28;20403;-74
2021/09/27 07:31:59;;;;;;;11.82;9.93;;;18.00;99.90;;;;;;5054848;28;20036;-74
2021/09/27 07:34:24;;;;;;;10.77;9.70;;;18.00;99.90;;;;;;5064526;28;20013;-73
2021/09/27 07:36:50;;;;;;;13.43;10.57;;;18.20;99.90;;;;;;5065672;28;20037;-73
2021/09/27 07:39:18;;;;;;;12.50;10.40;;;18.20;99.90;;;;;;5054860;28;20481;-74
2021/09/27 07:41:43;;;;;;;11.00;9.90;;;18.20;99.90;;;;;;5054361;28;20087;-76
2021/09/27 07:44:09;;;;;;;11.75;9.35;;;18.30;99.90;;;;;;5053202;28;20432;-73
2021/09/27 07:46:35;;;;;;;10.27;9.27;;;18.50;99.90;;;;;;5055550;28;20370;-73
2021/09/27 07:49:00;;;;;;;9.00;8.15;;;18.50;99.90;;;;;;5055614;28;20151;-75
2021/09/27 07:51:27;;;;;;;10.57;7.60;;;18.50;99.90;;;;;;5054503;28;20552;-74
2021/09/27 07:53:53;;;;;;;10.57;8.20;;;18.60;99.90;;;;;;5054954;28;20039;-73
2021/09/27 07:56:19;;;;;;;8.25;7.40;;;18.60;99.90;;;;;;5054502;28;20107;-74
2021/09/27 07:58:45;;;;;;;12.05;7.80;;;18.70;99.90;;;;;;5054210;28;20089;-74
2021/09/27 08:01:13;;;;;;;9.27;7.68;;;18.80;99.90;;;;;;5054138;28;20400;-73
2021/09/27 08:03:39;;;;;;;8.10;7.30;;;18.90;99.90;;;;;;5054442;28;20086;-74
2021/09/27 08:06:05;;;;;;;12.25;6.82;;;19.00;99.90;;;;;;5054285;28;20068;-73
2021/09/27 08:08:31;;;;;;;9.18;7.00;;;19.30;99.90;;;;;;5054040;28;20078;-73
2021/09/27 08:10:57;;;;;;;9.73;7.35;;;19.30;99.90;;;;;;5054188;28;20444;-73
2021/09/27 08:13:23;;;;;;;8.93;7.10;;;19.40;99.90;;;;;;5054446;28;20032;-74
2021/09/27 08:15:51;;;;;;;7.85;7.05;;;19.50;99.90;;;;;;5054030;28;20075;-72
2021/09/27 08:18:17;;;;;;;7.13;6.32;;;19.60;99.90;;;;;;5054019;28;20025;-75
2021/09/27 08:20:54;;;;;;;6.32;5.82;;;19.70;99.90;;;;;;5054161;28;20031;-74
2021/09/27 08:23:20;;;;;;;12.65;6.85;;;19.70;99.90;;;;;;5053127;28;20119;-74
2021/09/27 08:25:46;;;;;;;6.68;6.03;;;19.70;99.90;;;;;;5052512;28;20025;-74
2021/09/27 08:28:16;;;;;;;11.35;6.40;;;19.90;99.90;;;;;;5052505;28;20082;-74
2021/09/27 08:30:45;;;;;;;6.55;5.95;;;19.90;99.90;;;;;;5052387;28;20029;-73
2021/09/27 08:33:11;;;;;;;7.30;4.30;;;20.00;99.90;;;;;;5053648;28;20017;-74
2021/09/27 08:35:37;;;;;;;4.88;4.28;;;20.00;99.90;;;;;;5053865;28;20372;-74
2021/09/27 08:38:05;;;;;;;5.10;4.57;;;20.00;99.90;;;;;;5053922;28;20033;-74
2021/09/27 08:40:58;;;;;;;7.47;4.22;;;20.10;99.90;;;;;;5053525;28;20507;-72
2021/09/27 08:43:35;;;;;;;4.45;4.05;;;20.30;99.90;;;;;;5054255;28;20107;-75
2021/09/27 08:46:14;;;;;;;4.13;3.40;;;20.40;99.90;;;;;;5053871;28;20369;-75
2021/09/27 08:48:53;;;;;;;3.40;3.10;;;20.50;99.90;;;;;;5053538;28;20059;-76
2021/09/27 08:51:19;;;;;;;2.80;2.60;;;20.70;99.90;;;;;;5054196;28;20032;-73
2021/09/27 08:53:48;;;;;;;3.40;2.42;;;20.70;99.90;;;;;;5055410;28;20113;-74
2021/09/27 08:56:30;;;;;;;3.03;2.60;;;20.60;99.90;;;;;;5037629;28;20024;-74
2021/09/27 08:59:16;;;;;;;3.85;3.42;;;20.60;99.90;;;;;;5055232;28;20100;-74
2021/09/27 09:02:11;;;;;;;5.55;2.63;;;20.50;99.90;;;;;;5064921;28;20035;-74
2021/09/27 09:05:08;;;;;;;2.83;2.63;;;20.60;99.90;;;;;;5070984;28;20027;-74
2021/09/27 09:08:00;;;;;;;4.47;2.60;;;20.60;99.90;;;;;;5065346;22;20041;-74
2021/09/27 09:10:42;;;;;;;3.00;2.75;;;20.60;99.90;;;;;;5053958;28;20104;-74
2021/09/27 09:13:12;;;;;;;3.58;2.20;;;20.70;99.90;;;;;;5054017;28;20036;-74
2021/09/27 09:15:39;;;;;;;3.75;3.05;;;21.00;99.90;;;;;;5053781;28;20104;-74
2021/09/27 09:18:19;;;;;;;2.63;2.42;;;21.10;99.90;;;;;;5053403;28;20152;-73
2021/09/27 09:20:51;;;;;;;3.33;2.33;;;21.10;99.90;;;;;;5053314;28;20075;-74
2021/09/27 09:23:37;;;;;;;2.58;2.38;;;21.20;99.90;;;;;;5052757;28;20021;-74
2021/09/27 09:26:07;;;;;;;3.00;2.35;;;21.30;99.90;;;;;;5054127;28;20554;-73
2021/09/27 09:28:33;;;;;;;2.77;2.57;;;21.20;99.90;;;;;;5056488;28;20056;-73
2021/09/27 09:31:07;;;;;;;2.70;2.50;;;21.30;99.90;;;;;;5054747;28;20039;-75
2021/09/27 09:33:43;;;;;;;2.50;2.30;;;21.50;99.90;;;;;;5055284;28;20021;-73
2021/09/27 09:36:16;;;;;;;2.55;2.35;;;21.60;99.90;;;;;;5059724;28;20132;-74
2021/09/27 09:38:44;;;;;;;2.80;2.60;;;21.70;99.90;;;;;;5055496;28;20025;-74
2021/09/27 09:41:11;;;;;;;4.45;2.92;;;21.80;99.90;;;;;;5059232;28;20424;-72
2021/09/27 09:43:40;;;;;;;3.55;2.50;;;21.80;99.90;;;;;;5057752;28;20056;-74
2021/09/27 09:46:11;;;;;;;3.50;2.60;;;22.00;99.90;;;;;;5056671;28;20064;-75
2021/09/27 09:48:40;;;;;;;2.63;2.42;;;22.10;99.90;;;;;;5058777;28;20386;-73
2021/09/27 09:51:22;;;;;;;3.97;2.50;;;22.20;99.90;;;;;;5056994;28;20025;-74
2021/09/27 09:54:13;;;;;;;3.33;2.42;;;22.30;99.90;;;;;;5055355;28;20052;-74
2021/09/27 09:56:42;;;;;;;3.30;2.67;;;22.50;99.90;;;;;;5055054;28;20025;-74
2021/09/27 09:59:25;;;;;;;4.47;2.13;;;22.70;99.90;;;;;;5055078;28;20048;-74
2021/09/27 10:01:56;;;;;;;2.33;2.13;;;22.60;99.90;;;;;;5063319;28;20025;-74
2021/09/27 10:04:45;;;;;;;2.25;2.05;;;22.40;99.90;;;;;;5059885;28;20036;-74
2021/09/27 10:07:17;;;;;;;2.80;2.60;;;22.90;99.90;;;;;;5058737;28;20021;-74
2021/09/27 10:10:00;;;;;;;2.40;2.20;;;22.60;99.90;;;;;;5052167;28;20021;-74
2021/09/27 10:12:49;;;;;;;2.60;2.10;;;22.50;99.90;;;;;;5051165;28;20052;-74
2021/09/27 10:15:42;;;;;;;2.17;1.98;;;22.60;99.90;;;;;;5052165;28;20032;-74
2021/09/27 10:18:29;;;;;;;3.55;2.10;;;22.80;99.90;;;;;;5050981;28;20029;-74
2021/09/27 10:21:24;;;;;;;2.17;2.00;;;23.00;99.90;;;;;;5052720;28;20028;-74
2021/09/27 10:23:54;;;;;;;2.88;2.05;;;22.80;99.90;;;;;;5053756;28;20033;-74
2021/09/27 10:26:27;;;;;;;2.20;2.00;;;22.40;99.90;;;;;;5051471;28;20032;-75
2021/09/27 10:28:56;;;;;;;2.03;1.92;;;22.40;99.90;;;;;;5052724;28;20021;-75
2021/09/27 10:31:23;;;;;;;3.22;2.25;;;22.80;99.90;;;;;;5051236;28;20055;-74
2021/09/27 10:34:08;;;;;;;2.50;1.85;;;23.20;99.90;;;;;;5056192;28;20021;-74
2021/09/27 10:36:43;;;;;;;1.98;1.85;;;23.00;99.90;;;;;;5059789;28;20025;-74
2021/09/27 10:39:11;;;;;;;2.17;1.85;;;23.40;99.90;;;;;;5059795;28;20037;-74
2021/09/27 10:41:39;;;;;;;2.40;2.20;;;23.50;99.90;;;;;;5057350;28;20027;-74
2021/09/27 10:44:15;;;;;;;2.75;2.47;;;23.50;99.90;;;;;;5059297;28;20053;-74
2021/09/27 10:46:44;;;;;;;4.53;1.80;;;23.70;99.90;;;;;;5055553;28;20021;-74
2021/09/27 10:49:33;;;;;;;3.20;2.35;;;23.80;99.90;;;;;;5055969;28;20020;-74
2021/09/27 10:52:24;;;;;;;3.55;2.00;;;23.90;99.90;;;;;;5054717;28;20024;-74
2021/09/27 10:55:17;;;;;;;1.92;1.58;;;23.80;99.90;;;;;;5054227;28;20025;-75
2021/09/27 10:58:01;;;;;;;2.08;1.65;;;24.10;99.90;;;;;;5056120;28;20075;-75
2021/09/27 11:00:47;;;;;;;1.92;1.73;;;24.60;99.90;;;;;;5056136;28;20219;-75
2021/09/27 11:03:25;;;;;;;1.75;1.65;;;24.60;99.90;;;;;;5059988;28;20485;-73
2021/09/27 11:06:16;;;;;;;1.30;1.20;;;24.50;99.60;;;;;;5062574;28;20406;-74
2021/09/27 11:08:45;;;;;;;1.55;1.45;;;24.30;99.50;;;;;;5061138;28;20033;-73
2021/09/27 11:11:29;;;;;;;2.20;1.60;;;24.40;99.30;;;;;;5062207;28;20021;-74
2021/09/27 11:13:59;;;;;;;1.85;1.52;;;24.70;98.90;;;;;;5057898;28;20021;-75
2021/09/27 11:16:34;;;;;;;1.85;1.50;;;24.50;98.50;;;;;;5056064;28;20109;-75
2021/09/27 11:19:17;;;;;;;1.42;1.33;;;24.50;99.10;;;;;;5054103;28;20398;-75
2021/09/27 11:21:47;;;;;;;1.60;1.50;;;24.60;99.20;;;;;;5054276;28;20570;-74
2021/09/27 11:24:15;;;;;;;1.50;1.38;;;24.60;98.80;;;;;;5054142;28;20508;-75
2021/09/27 11:27:26;;;;;;;1.60;1.50;;;24.40;98.90;;;;;;5055172;28;20021;-74
2021/09/27 11:29:54;;;;;;;2.03;1.70;;;24.10;98.90;;;;;;5042230;28;20124;-73
2021/09/27 11:32:34;;;;;;;2.08;1.88;;;23.90;99.50;;;;;;5055080;28;20480;-74
2021/09/27 11:35:18;;;;;;;1.30;1.20;;;23.90;99.90;;;;;;5055110;28;20021;-74
2021/09/27 11:37:43;;;;;;;1.77;1.40;;;23.60;99.20;;;;;;5055165;28;20035;-73
2021/09/27 11:40:32;;;;;;;2.88;1.58;;;23.20;99.80;;;;;;5053521;28;20025;-74
2021/09/27 11:43:13;;;;;;;3.15;1.50;;;23.00;99.90;;;;;;5053891;28;20029;-75
2021/09/27 11:46:14;;;;;;;1.70;1.58;;;23.30;99.90;;;;;;5054779;28;20082;-74
2021/09/27 11:48:47;;;;;;;2.35;1.67;;;23.20;99.90;;;;;;5055312;28;20179;-74
2021/09/27 11:51:25;;;;;;;2.03;1.85;;;23.60;99.90;;;;;;5055559;28;20055;-75
2021/09/27 11:54:03;;;;;;;3.88;1.42;;;23.50;99.80;;;;;;5054014;28;20434;-74
2021/09/27 11:56:51;;;;;;;2.33;1.70;;;23.70;99.30;;;;;;5055641;28;20053;-75
2021/09/27 11:59:24;;;;;;;3.00;1.70;;;23.40;99.90;;;;;;5054989;28;20032;-75
2021/09/27 12:02:13;;;;;;;2.08;1.58;;;23.40;99.90;;;;;;5054911;28;20071;-75
2021/09/27 12:05:19;;;;;;;2.03;1.70;;;23.40;99.90;;;;;;5053380;28;20064;-73
2021/09/27 12:08:13;;;;;;;1.90;1.70;;;23.40;99.70;;;;;;5053517;28;20036;-74
2021/09/27 12:11:05;;;;;;;2.13;1.60;;;23.50;99.90;;;;;;5050874;28;20041;-74
2021/09/27 12:13:43;;;;;;;4.10;1.70;;;23.60;99.70;;;;;;5051851;28;20025;-75
2021/09/27 12:16:18;;;;;;;1.58;1.40;;;23.60;99.70;;;;;;5055565;28;20029;-74
2021/09/27 12:18:52;;;;;;;2.30;1.88;;;23.60;99.50;;;;;;5055551;28;20025;-74
2021/09/27 12:21:27;;;;;;;2.22;1.67;;;23.50;99.80;;;;;;5055960;28;20045;-75
2021/09/27 12:24:05;;;;;;;3.28;2.15;;;23.50;99.90;;;;;;5054532;28;20025;-74
2021/09/27 12:26:35;;;;;;;1.85;1.63;;;23.70;99.90;;;;;;5052616;28;20028;-74
2021/09/27 12:29:14;;;;;;;2.15;1.75;;;23.80;99.90;;;;;;5053719;28;20074;-74
2021/09/27 12:31:54;;;;;;;2.55;1.52;;;23.90;99.60;;;;;;5052676;28;20485;-74
2021/09/27 12:34:25;;;;;;;1.90;1.60;;;23.80;99.90;;;;;;5054005;28;20024;-74
2021/09/27 12:36:51;;;;;;;1.73;1.63;;;23.70;99.60;;;;;;5054141;28;20508;-76
2021/09/27 12:39:21;;;;;;;2.55;1.67;;;24.00;99.90;;;;;;5053686;28;20025;-76
2021/09/27 12:41:47;;;;;;;2.33;1.30;;;24.10;99.90;;;;;;5053975;28;20032;-75
2021/09/27 12:44:20;;;;;;;3.88;1.20;;;23.90;99.00;;;;;;5053523;28;20508;-73
2021/09/27 12:46:49;;;;;;;2.80;1.80;;;23.80;98.20;;;;;;5053912;28;20025;-75
2021/09/27 12:49:33;;;;;;;1.75;1.40;;;23.90;98.20;;;;;;5052499;28;20021;-75
2021/09/27 12:52:01;;;;;;;2.10;1.20;;;24.00;98.40;;;;;;5054233;28;20070;-73
2021/09/27 12:54:46;;;;;;;5.10;1.70;;;23.90;98.60;;;;;;5053669;28;20524;-74
2021/09/27 12:57:41;;;;;;;1.98;1.67;;;23.90;98.80;;;;;;5052777;28;20021;-74
2021/09/27 13:00:40;;;;;;;2.05;1.25;;;23.90;99.20;;;;;;5053919;28;20100;-74
2021/09/27 13:03:08;;;;;;;3.72;1.65;;;24.00;99.60;;;;;;5053429;28;20017;-74
2021/09/27 13:06:07;;;;;;;1.58;1.40;;;23.80;98.80;;;;;;5053485;28;20017;-75
2021/09/27 13:08:46;;;;;;;2.15;1.52;;;23.80;98.70;;;;;;5036682;28;20065;-75
2021/09/27 13:11:27;;;;;;;3.63;1.55;;;23.60;98.80;;;;;;5053523;28;20100;-74
2021/09/27 13:13:56;;;;;;;;;;;23.60;99.20;;;;;;5053731;28;20028;-74
2021/09/27 13:16:25;;;;;;;1.83;1.45;;;23.70;99.30;;;;;;5051867;28;19912;-73
2021/09/27 13:18:50;;;;;;;2.40;1.60;;;23.60;99.70;;;;;;5051711;28;20033;-75
2021/09/27 13:21:30;;;;;;;2.30;1.65;;;23.50;99.90;;;;;;5053530;28;20097;-75
2021/09/27 13:23:59;;;;;;;2.42;2.22;;;23.20;99.90;;;;;;5053451;28;20025;-74
2021/09/27 13:26:45;;;;;;;2.10;1.40;;;23.00;99.90;;;;;;5053507;28;20021;-74
2021/09/27 13:29:29;;;;;;;3.85;1.38;;;22.90;99.90;;;;;;5053469;28;20488;-74